PRIVATE WETTERSTATION BILLIGHEIM-ALLFELD                       ZURCK
Wetterdaten: Mittwoch, 27.08.2014
Datum Zeit Temp. A. Temp. A. min Temp. A. max Feuchte A. Luftdruck Regen Wind Richtung Richtung Sonnenschein ET Solar Taupunkt Windchill Windben Empfang
27.08.2014 00:00 14,6 C 14,6 C 14,7 C 87 % 1007,2 hPa 0,0 l/m 3,2 km/h (1 Bft) S-SW 202 0 min 0,025 mm 0 W/m 12,5 C 14,6 C 16,1 km/h (3 Bft) 97 %
27.08.2014 00:10 14,7 C 14,6 C 14,7 C 87 % 1007,1 hPa 0,0 l/m 8,0 km/h (2 Bft) S-SW 202 0 min 0,000 mm 0 W/m 12,6 C 13,8 C 16,1 km/h (3 Bft) 96 %
27.08.2014 00:20 14,7 C 14,6 C 14,7 C 87 % 1007,1 hPa 0,0 l/m 1,6 km/h (1 Bft) W-SW 247 0 min 0,000 mm 0 W/m 12,6 C 14,7 C 11,3 km/h (2 Bft) 98 %
27.08.2014 00:30 14,7 C 14,6 C 14,7 C 87 % 1007,1 hPa 0,0 l/m 3,2 km/h (1 Bft) W-SW 247 0 min 0,000 mm 0 W/m 12,6 C 14,7 C 14,5 km/h (3 Bft) 98 %
27.08.2014 00:40 14,7 C 14,6 C 14,7 C 87 % 1007,3 hPa 0,0 l/m 4,8 km/h (1 Bft) W-SW 247 0 min 0,000 mm 0 W/m 12,6 C 14,7 C 14,5 km/h (3 Bft) 98 %
27.08.2014 00:50 14,7 C 14,7 C 14,7 C 87 % 1007,3 hPa 0,0 l/m 4,8 km/h (1 Bft) W 270 0 min 0,000 mm 0 W/m 12,6 C 14,7 C 17,7 km/h (3 Bft) 97 %
27.08.2014 01:00 14,7 C 14,7 C 14,8 C 87 % 1007,6 hPa 0,0 l/m 6,4 km/h (2 Bft) SW 225 0 min 0,025 mm 0 W/m 12,6 C 14,7 C 17,7 km/h (3 Bft) 98 %
27.08.2014 01:10 14,8 C 14,7 C 14,8 C 87 % 1007,6 hPa 0,0 l/m 6,4 km/h (2 Bft) SW 225 0 min 0,000 mm 0 W/m 12,7 C 14,8 C 24,1 km/h (4 Bft) 98 %
27.08.2014 01:20 14,7 C 14,7 C 14,8 C 87 % 1007,6 hPa 0,0 l/m 6,4 km/h (2 Bft) W-SW 247 0 min 0,000 mm 0 W/m 12,6 C 14,7 C 19,3 km/h (3 Bft) 97 %
27.08.2014 01:30 14,7 C 14,7 C 14,8 C 87 % 1007,6 hPa 0,0 l/m 9,7 km/h (2 Bft) W-SW 247 0 min 0,000 mm 0 W/m 12,6 C 12,9 C 19,3 km/h (3 Bft) 99 %
27.08.2014 01:40 14,7 C 14,7 C 14,7 C 87 % 1007,7 hPa 0,0 l/m 6,4 km/h (2 Bft) W-SW 247 0 min 0,000 mm 0 W/m 12,6 C 14,7 C 19,3 km/h (3 Bft) 97 %
27.08.2014 01:50 14,7 C 14,7 C 14,7 C 87 % 1007,5 hPa 0,0 l/m 4,8 km/h (1 Bft) W-SW 247 0 min 0,000 mm 0 W/m 12,6 C 14,7 C 16,1 km/h (3 Bft) 98 %
27.08.2014 02:00 14,7 C 14,7 C 14,7 C 87 % 1007,4 hPa 0,0 l/m 3,2 km/h (1 Bft) W-SW 247 0 min 0,025 mm 0 W/m 12,6 C 14,7 C 11,3 km/h (2 Bft) 97 %
27.08.2014 02:10 14,7 C 14,7 C 14,7 C 87 % 1007,8 hPa 0,0 l/m 4,8 km/h (1 Bft) W-SW 247 0 min 0,000 mm 0 W/m 12,6 C 14,7 C 11,3 km/h (2 Bft) 98 %
27.08.2014 02:20 14,7 C 14,7 C 14,7 C 87 % 1007,7 hPa 0,2 l/m 6,4 km/h (2 Bft) W-SW 247 0 min 0,000 mm 0 W/m 12,6 C 14,7 C 16,1 km/h (3 Bft) 98 %
27.08.2014 02:30 14,7 C 14,7 C 14,7 C 87 % 1007,6 hPa 0,0 l/m 3,2 km/h (1 Bft) W-SW 247 0 min 0,000 mm 0 W/m 12,6 C 14,7 C 17,7 km/h (3 Bft) 96 %
27.08.2014 02:40 14,7 C 14,7 C 14,7 C 87 % 1007,7 hPa 0,0 l/m 4,8 km/h (1 Bft) W-SW 247 0 min 0,000 mm 0 W/m 12,6 C 14,7 C 14,5 km/h (3 Bft) 98 %
27.08.2014 02:50 14,7 C 14,7 C 14,7 C 87 % 1007,8 hPa 0,0 l/m 3,2 km/h (1 Bft) W-SW 247 0 min 0,000 mm 0 W/m 12,6 C 14,7 C 11,3 km/h (2 Bft) 97 %
27.08.2014 03:00 14,7 C 14,7 C 14,7 C 87 % 1007,9 hPa 0,2 l/m 4,8 km/h (1 Bft) W 270 0 min 0,025 mm 0 W/m 12,6 C 14,7 C 16,1 km/h (3 Bft) 97 %
27.08.2014 03:10 14,7 C 14,7 C 14,7 C 87 % 1007,9 hPa 0,0 l/m 3,2 km/h (1 Bft) W-SW 247 0 min 0,000 mm 0 W/m 12,6 C 14,7 C 17,7 km/h (3 Bft) 98 %
27.08.2014 03:20 14,7 C 14,7 C 14,7 C 87 % 1007,9 hPa 0,4 l/m 3,2 km/h (1 Bft) SW 225 0 min 0,000 mm 0 W/m 12,6 C 14,7 C 14,5 km/h (3 Bft) 97 %
27.08.2014 03:30 14,7 C 14,7 C 14,7 C 87 % 1007,9 hPa 0,4 l/m 3,2 km/h (1 Bft) SW 225 0 min 0,000 mm 0 W/m 12,6 C 14,7 C 11,3 km/h (2 Bft) 98 %
27.08.2014 03:40 14,7 C 14,7 C 14,7 C 87 % 1007,8 hPa 0,2 l/m 4,8 km/h (1 Bft) W-SW 247 0 min 0,000 mm 0 W/m 12,6 C 14,7 C 16,1 km/h (3 Bft) 97 %
27.08.2014 03:50 14,7 C 14,7 C 14,7 C 87 % 1007,9 hPa 0,0 l/m 4,8 km/h (1 Bft) SW 225 0 min 0,000 mm 0 W/m 12,6 C 14,7 C 14,5 km/h (3 Bft) 98 %
27.08.2014 04:00 14,7 C 14,7 C 14,7 C 87 % 1008,2 hPa 0,0 l/m 8,0 km/h (2 Bft) W-SW 247 0 min 0,025 mm 0 W/m 12,6 C 13,8 C 19,3 km/h (3 Bft) 97 %
27.08.2014 04:10 14,7 C 14,7 C 14,7 C 87 % 1008,3 hPa 0,0 l/m 4,8 km/h (1 Bft) W-SW 247 0 min 0,000 mm 0 W/m 12,6 C 14,7 C 14,5 km/h (3 Bft) 98 %
27.08.2014 04:20 14,7 C 14,7 C 14,7 C 87 % 1008,3 hPa 0,0 l/m 3,2 km/h (1 Bft) W 270 0 min 0,000 mm 0 W/m 12,6 C 14,7 C 9,7 km/h (2 Bft) 97 %
27.08.2014 04:30 14,7 C 14,6 C 14,7 C 87 % 1008,3 hPa 0,0 l/m 0,0 km/h (0 Bft) W 270 0 min 0,000 mm 0 W/m 12,6 C 14,7 C 4,8 km/h (1 Bft) 98 %
27.08.2014 04:40 14,7 C 14,6 C 14,7 C 87 % 1008,2 hPa 0,0 l/m 4,8 km/h (1 Bft) S 180 0 min 0,000 mm 0 W/m 12,6 C 14,7 C 16,1 km/h (3 Bft) 98 %
27.08.2014 04:50 14,4 C 14,4 C 14,7 C 88 % 1008,3 hPa 0,0 l/m 12,9 km/h (3 Bft) NW 315 0 min 0,000 mm 0 W/m 12,4 C 11,2 C 29,0 km/h (5 Bft) 97 %
27.08.2014 05:00 13,8 C 13,8 C 14,4 C 88 % 1008,5 hPa 0,6 l/m 0,0 km/h (0 Bft) N-NO 22 0 min 0,025 mm 0 W/m 11,8 C 13,8 C 16,1 km/h (3 Bft) 98 %
27.08.2014 05:10 13,4 C 13,4 C 13,8 C 88 % 1008,8 hPa 3,8 l/m 0,0 km/h (0 Bft) NW 315 0 min 0,000 mm 0 W/m 11,5 C 13,4 C 9,7 km/h (2 Bft) 97 %
27.08.2014 05:20 13,2 C 13,2 C 13,4 C 88 % 1008,9 hPa 6,0 l/m 0,0 km/h (0 Bft) NW 315 0 min 0,000 mm 0 W/m 11,3 C 13,2 C 1,6 km/h (1 Bft) 98 %
27.08.2014 05:30 13,0 C 13,0 C 13,2 C 88 % 1009,1 hPa 1,2 l/m 0,0 km/h (0 Bft) NW 315 0 min 0,000 mm 0 W/m 11,1 C 13,0 C 3,2 km/h (1 Bft) 97 %
27.08.2014 05:40 12,8 C 12,8 C 13,0 C 88 % 1009,3 hPa 0,2 l/m 4,8 km/h (1 Bft) NW 315 0 min 0,000 mm 0 W/m 10,9 C 12,8 C 14,5 km/h (3 Bft) 97 %
27.08.2014 05:50 12,7 C 12,7 C 12,8 C 88 % 1009,7 hPa 0,0 l/m 3,2 km/h (1 Bft) NW 315 0 min 0,000 mm 0 W/m 10,8 C 12,7 C 9,7 km/h (2 Bft) 98 %
27.08.2014 06:00 12,6 C 12,6 C 12,7 C 88 % 1009,7 hPa 0,2 l/m 3,2 km/h (1 Bft) NW 315 0 min 0,000 mm 0 W/m 10,7 C 12,6 C 16,1 km/h (3 Bft) 97 %
27.08.2014 06:10 12,6 C 12,6 C 12,6 C 88 % 1009,9 hPa 0,0 l/m 0,0 km/h (0 Bft) SW 225 0 min 0,000 mm 0 W/m 10,7 C 12,6 C 3,2 km/h (1 Bft) 98 %
27.08.2014 06:20 12,5 C 12,5 C 12,6 C 88 % 1010,2 hPa 0,2 l/m 3,2 km/h (1 Bft) NW 315 0 min 0,000 mm 0 W/m 10,6 C 12,5 C 9,7 km/h (2 Bft) 97 %
27.08.2014 06:30 12,5 C 12,5 C 12,5 C 88 % 1010,3 hPa 0,2 l/m 0,0 km/h (0 Bft) NW 315 0 min 0,000 mm 0 W/m 10,6 C 12,5 C 8,0 km/h (2 Bft) 84 %
27.08.2014 06:40 12,4 C 12,4 C 12,5 C 88 % 1010,5 hPa 0,0 l/m 0,0 km/h (0 Bft) N 0 0 min 0,000 mm 0 W/m 10,5 C 12,4 C 0,0 km/h (0 Bft) 98 %
27.08.2014 06:50 12,4 C 12,4 C 12,4 C 88 % 1010,4 hPa 0,0 l/m 0,0 km/h (0 Bft) N 0 0 min 0,000 mm 0 W/m 10,5 C 12,4 C 0,0 km/h (0 Bft) 97 %
27.08.2014 07:00 12,4 C 12,4 C 12,4 C 88 % 1010,7 hPa 0,0 l/m 0,0 km/h (0 Bft) N 0 0 min 0,000 mm 5 W/m 10,5 C 12,4 C 0,0 km/h (0 Bft) 98 %
27.08.2014 07:10 12,3 C 12,3 C 12,4 C 88 % 1011,1 hPa 0,0 l/m 0,0 km/h (0 Bft) NW 315 0 min 0,000 mm 12 W/m 10,4 C 12,3 C 4,8 km/h (1 Bft) 99 %
27.08.2014 07:20 12,3 C 12,3 C 12,4 C 88 % 1011,2 hPa 0,0 l/m 0,0 km/h (0 Bft) N 0 0 min 0,000 mm 16 W/m 10,4 C 12,3 C 0,0 km/h (0 Bft) 100 %
27.08.2014 07:30 12,3 C 12,3 C 12,3 C 88 % 1011,3 hPa 0,0 l/m 0,0 km/h (0 Bft) NW 315 0 min 0,000 mm 28 W/m 10,4 C 12,3 C 1,6 km/h (1 Bft) 100 %
27.08.2014 07:40 12,4 C 12,3 C 12,4 C 88 % 1011,5 hPa 0,0 l/m 0,0 km/h (0 Bft) NW 315 0 min 0,000 mm 69 W/m 10,5 C 12,4 C 1,6 km/h (1 Bft) 100 %
27.08.2014 07:50 12,6 C 12,4 C 12,6 C 88 % 1011,8 hPa 0,0 l/m 0,0 km/h (0 Bft) NW 315 0 min 0,000 mm 76 W/m 10,7 C 12,6 C 4,8 km/h (1 Bft) 99 %
27.08.2014 08:00 12,6 C 12,6 C 12,6 C 88 % 1012,0 hPa 0,0 l/m 0,0 km/h (0 Bft) NW 315 0 min 0,025 mm 63 W/m 10,7 C 12,6 C 1,6 km/h (1 Bft) 100 %
27.08.2014 08:10 12,7 C 12,6 C 12,7 C 88 % 1012,3 hPa 0,0 l/m 0,0 km/h (0 Bft) N-NW 337 0 min 0,000 mm 65 W/m 10,8 C 12,7 C 1,6 km/h (1 Bft) 100 %
27.08.2014 08:20 12,7 C 12,7 C 12,7 C 88 % 1012,5 hPa 0,0 l/m 0,0 km/h (0 Bft) N-NW 337 0 min 0,000 mm 54 W/m 10,8 C 12,7 C 3,2 km/h (1 Bft) 100 %
27.08.2014 08:30 12,8 C 12,7 C 12,8 C 88 % 1012,7 hPa 0,0 l/m 0,0 km/h (0 Bft) N-NW 337 0 min 0,000 mm 67 W/m 10,9 C 12,8 C 4,8 km/h (1 Bft) 100 %
27.08.2014 08:40 12,8 C 12,8 C 12,8 C 88 % 1012,7 hPa 0,0 l/m 0,0 km/h (0 Bft) N-NW 337 0 min 0,000 mm 121 W/m 10,9 C 12,8 C 1,6 km/h (1 Bft) 99 %
27.08.2014 08:50 12,9 C 12,8 C 12,9 C 88 % 1012,8 hPa 0,0 l/m 0,0 km/h (0 Bft) N-NW 337 0 min 0,000 mm 139 W/m 11,0 C 12,9 C 1,6 km/h (1 Bft) 100 %
27.08.2014 09:00 13,1 C 12,9 C 13,1 C 87 % 1013,0 hPa 0,0 l/m 0,0 km/h (0 Bft) N-NW 337 10 min 0,051 mm 155 W/m 11,0 C 13,1 C 4,8 km/h (1 Bft) 100 %
27.08.2014 09:10 13,3 C 13,1 C 13,3 C 88 % 1013,2 hPa 0,0 l/m 1,6 km/h (1 Bft) NW 315 10 min 0,000 mm 155 W/m 11,4 C 13,3 C 6,4 km/h (2 Bft) 100 %
27.08.2014 09:20 13,3 C 13,3 C 13,3 C 88 % 1013,3 hPa 0,0 l/m 0,0 km/h (0 Bft) W 270 0 min 0,000 mm 132 W/m 11,4 C 13,3 C 4,8 km/h (1 Bft) 99 %
27.08.2014 09:30 13,2 C 13,2 C 13,3 C 88 % 1013,3 hPa 0,0 l/m 0,0 km/h (0 Bft) W 270 0 min 0,000 mm 141 W/m 11,3 C 13,2 C 3,2 km/h (1 Bft) 99 %
27.08.2014 09:40 13,2 C 13,2 C 13,3 C 88 % 1013,5 hPa 0,2 l/m 0,0 km/h (0 Bft) W-NW 292 0 min 0,000 mm 113 W/m 11,3 C 13,2 C 4,8 km/h (1 Bft) 100 %
27.08.2014 09:50 13,3 C 13,2 C 13,3 C 88 % 1013,5 hPa 0,0 l/m 0,0 km/h (0 Bft) NW 315 10 min 0,000 mm 253 W/m 11,4 C 13,3 C 6,4 km/h (2 Bft) 100 %
27.08.2014 10:00 13,4 C 13,2 C 13,4 C 87 % 1013,9 hPa 0,0 l/m 0,4 km/h (0 Bft) W 279 10 min 0,053 mm 218 W/m 11,3 C 13,4 C 3,2 km/h (1 Bft) 98 %
27.08.2014 10:10 13,5 C 13,4 C 13,5 C 87 % 1014,0 hPa 0,0 l/m 0,5 km/h (0 Bft) N-NO 21 10 min 0,000 mm 197 W/m 11,4 C 13,5 C 4,8 km/h (1 Bft) 97 %
27.08.2014 10:20 13,6 C 13,5 C 13,6 C 88 % 1014,3 hPa 0,0 l/m 0,5 km/h (0 Bft) N-NW 327 10 min 0,000 mm 197 W/m 11,6 C 13,6 C 6,4 km/h (2 Bft) 97 %
27.08.2014 10:30 13,8 C 13,6 C 13,8 C 88 % 1014,3 hPa 0,0 l/m 0,0 km/h (0 Bft) NW 320 10 min 0,000 mm 272 W/m 11,8 C 13,8 C 1,6 km/h (1 Bft) 98 %
27.08.2014 10:40 13,9 C 13,8 C 13,9 C 88 % 1014,6 hPa 0,0 l/m 1,2 km/h (1 Bft) N-NW 339 0 min 0,000 mm 144 W/m 11,9 C 13,9 C 8,0 km/h (2 Bft) 98 %
27.08.2014 10:50 14,0 C 13,9 C 14,0 C 88 % 1014,7 hPa 0,0 l/m 0,0 km/h (0 Bft) N-NW 339 10 min 0,000 mm 285 W/m 12,0 C 14,0 C 1,6 km/h (1 Bft) 98 %
27.08.2014 11:00 14,2 C 14,0 C 14,2 C 88 % 1014,8 hPa 0,0 l/m 0,9 km/h (0 Bft) N 5 10 min 0,127 mm 487 W/m 12,2 C 14,2 C 4,8 km/h (1 Bft) 98 %
27.08.2014 11:10 14,3 C 14,2 C 14,3 C 88 % 1015,0 hPa 0,0 l/m 0,0 km/h (0 Bft) N 5 10 min 0,000 mm 165 W/m 12,3 C 14,3 C 1,6 km/h (1 Bft) 97 %
27.08.2014 11:20 14,6 C 14,3 C 14,6 C 88 % 1015,1 hPa 0,0 l/m 0,0 km/h (0 Bft) N 5 10 min 0,000 mm 230 W/m 12,6 C 14,6 C 1,6 km/h (1 Bft) 97 %
27.08.2014 11:30 14,8 C 14,6 C 14,8 C 88 % 1015,2 hPa 0,0 l/m 0,3 km/h (0 Bft) N-NO 32 10 min 0,000 mm 306 W/m 12,8 C 14,8 C 4,8 km/h (1 Bft) 97 %
27.08.2014 11:40 15,7 C 14,8 C 15,7 C 88 % 1015,2 hPa 0,0 l/m 0,0 km/h (0 Bft) O-NO 59 10 min 0,000 mm 895 W/m 13,7 C 15,7 C 1,6 km/h (1 Bft) 97 %
27.08.2014 11:50 16,4 C 15,7 C 16,4 C 86 % 1015,2 hPa 0,0 l/m 3,8 km/h (1 Bft) SO 126 10 min 0,000 mm 780 W/m 14,1 C 16,4 C 17,7 km/h (3 Bft) 97 %
27.08.2014 12:00 16,8 C 16,4 C 16,8 C 80 % 1015,1 hPa 0,0 l/m 1,5 km/h (1 Bft) SO 127 10 min 0,280 mm 770 W/m 13,3 C 16,8 C 8,0 km/h (2 Bft) 97 %
27.08.2014 12:10 17,2 C 16,8 C 17,2 C 82 % 1015,2 hPa 0,0 l/m 0,8 km/h (0 Bft) NW 323 10 min 0,000 mm 782 W/m 14,1 C 17,2 C 6,4 km/h (2 Bft) 98 %
27.08.2014 12:20 17,5 C 17,2 C 17,6 C 79 % 1015,2 hPa 0,0 l/m 0,7 km/h (0 Bft) O-SO 103 10 min 0,000 mm 775 W/m 13,8 C 17,5 C 4,8 km/h (1 Bft) 98 %
27.08.2014 12:30 17,8 C 17,5 C 17,8 C 78 % 1015,2 hPa 0,0 l/m 0,7 km/h (0 Bft) NW 318 10 min 0,000 mm 773 W/m 13,9 C 17,8 C 4,8 km/h (1 Bft) 97 %
27.08.2014 12:40 17,9 C 17,8 C 18,0 C 72 % 1015,3 hPa 0,0 l/m 1,0 km/h (0 Bft) O-SO 121 10 min 0,000 mm 803 W/m 12,8 C 17,9 C 6,4 km/h (2 Bft) 97 %
27.08.2014 12:50 18,1 C 17,9 C 18,1 C 71 % 1015,2 hPa 0,0 l/m 3,0 km/h (1 Bft) SO 136 10 min 0,000 mm 814 W/m 12,8 C 18,1 C 9,7 km/h (2 Bft) 98 %
27.08.2014 13:00 18,3 C 18,1 C 18,3 C 74 % 1015,3 hPa 0,0 l/m 0,0 km/h (0 Bft) O-SO 107 10 min 0,432 mm 967 W/m 13,6 C 18,3 C 1,6 km/h (1 Bft) 97 %
27.08.2014 13:10 18,5 C 18,3 C 18,6 C 67 % 1015,3 hPa 0,0 l/m 1,0 km/h (0 Bft) O-SO 107 10 min 0,000 mm 253 W/m 12,3 C 18,5 C 8,0 km/h (2 Bft) 97 %
27.08.2014 13:20 18,1 C 18,1 C 18,5 C 68 % 1015,4 hPa 0,0 l/m 0,2 km/h (0 Bft) SO 130 10 min 0,000 mm 937 W/m 12,1 C 18,1 C 4,8 km/h (1 Bft) 97 %
27.08.2014 13:30 18,4 C 18,1 C 18,4 C 69 % 1015,3 hPa 0,0 l/m 1,7 km/h (1 Bft) S 169 10 min 0,000 mm 956 W/m 12,6 C 18,4 C 8,0 km/h (2 Bft) 97 %
27.08.2014 13:40 18,7 C 18,4 C 18,7 C 68 % 1015,3 hPa 0,0 l/m 4,8 km/h (1 Bft) S-SO 153 10 min 0,000 mm 935 W/m 12,7 C 18,7 C 14,5 km/h (3 Bft) 98 %
27.08.2014 13:50 18,6 C 18,6 C 18,7 C 66 % 1015,3 hPa 0,0 l/m 1,2 km/h (1 Bft) W 281 10 min 0,000 mm 234 W/m 12,1 C 18,6 C 8,0 km/h (2 Bft) 97 %
27.08.2014 14:00 18,3 C 18,3 C 18,6 C 67 % 1015,4 hPa 0,0 l/m 0,9 km/h (0 Bft) W-NW 288 10 min 0,304 mm 202 W/m 12,1 C 18,3 C 6,4 km/h (2 Bft) 98 %
27.08.2014 14:10 18,1 C 18,1 C 18,3 C 74 % 1015,4 hPa 0,0 l/m 0,0 km/h (0 Bft) W-NW 290 10 min 0,000 mm 279 W/m 13,4 C 18,1 C 1,6 km/h (1 Bft) 97 %
27.08.2014 14:20 18,2 C 18,1 C 18,2 C 70 % 1015,5 hPa 0,0 l/m 0,0 km/h (0 Bft) NW 311 10 min 0,000 mm 281 W/m 12,6 C 18,2 C 1,6 km/h (1 Bft) 98 %
27.08.2014 14:30 18,1 C 18,1 C 18,2 C 70 % 1015,5 hPa 0,0 l/m 0,4 km/h (0 Bft) SO 146 10 min 0,000 mm 204 W/m 12,5 C 18,1 C 4,8 km/h (1 Bft) 97 %
27.08.2014 14:40 18,1 C 18,0 C 18,1 C 66 % 1015,5 hPa 0,0 l/m 0,0 km/h (0 Bft) SO 146 10 min 0,000 mm 271 W/m 11,6 C 18,1 C 1,6 km/h (1 Bft) 96 %
27.08.2014 14:50 18,2 C 18,1 C 18,2 C 66 % 1015,6 hPa 0,0 l/m 0,5 km/h (0 Bft) SO 146 10 min 0,000 mm 276 W/m 11,7 C 18,2 C 4,8 km/h (1 Bft) 97 %
27.08.2014 15:00 18,3 C 18,1 C 18,3 C 65 % 1015,5 hPa 0,0 l/m 0,0 km/h (0 Bft) SO 146 10 min 0,229 mm 889 W/m 11,6 C 18,3 C 1,6 km/h (1 Bft) 97 %
27.08.2014 15:10 18,9 C 18,3 C 18,9 C 68 % 1015,5 hPa 0,0 l/m 0,7 km/h (0 Bft) S-SW 192 10 min 0,000 mm 388 W/m 12,9 C 18,9 C 6,4 km/h (2 Bft) 97 %
27.08.2014 15:20 19,4 C 18,9 C 19,4 C 68 % 1015,6 hPa 0,0 l/m 2,7 km/h (1 Bft) S-SW 209 10 min 0,000 mm 301 W/m 13,3 C 19,4 C 11,3 km/h (2 Bft) 97 %
27.08.2014 15:30 19,4 C 19,3 C 19,4 C 64 % 1015,6 hPa 0,0 l/m 1,0 km/h (0 Bft) SW 218 10 min 0,000 mm 364 W/m 12,4 C 19,4 C 9,7 km/h (2 Bft) 97 %
27.08.2014 15:40 19,9 C 19,4 C 19,9 C 66 % 1015,6 hPa 0,0 l/m 2,1 km/h (1 Bft) W 272 10 min 0,000 mm 812 W/m 13,4 C 19,9 C 9,7 km/h (2 Bft) 97 %
27.08.2014 15:50 20,2 C 19,9 C 20,3 C 64 % 1015,7 hPa 0,0 l/m 2,4 km/h (1 Bft) S-SW 199 10 min 0,000 mm 429 W/m 13,2 C 20,2 C 8,0 km/h (2 Bft) 97 %
27.08.2014 16:00 19,8 C 19,7 C 20,2 C 65 % 1015,7 hPa 0,0 l/m 2,7 km/h (1 Bft) W-NW 294 10 min 0,356 mm 193 W/m 13,0 C 19,8 C 9,7 km/h (2 Bft) 97 %
27.08.2014 16:10 19,9 C 19,7 C 19,9 C 66 % 1015,5 hPa 0,0 l/m 1,5 km/h (1 Bft) S-SW 209 10 min 0,000 mm 158 W/m 13,4 C 19,9 C 9,7 km/h (2 Bft) 97 %
27.08.2014 16:20 20,0 C 19,9 C 20,0 C 61 % 1015,6 hPa 0,0 l/m 1,9 km/h (1 Bft) W 267 0 min 0,000 mm 132 W/m 12,2 C 20,0 C 9,7 km/h (2 Bft) 97 %
27.08.2014 16:30 20,2 C 20,0 C 20,2 C 62 % 1015,5 hPa 0,0 l/m 1,1 km/h (1 Bft) W-SW 255 0 min 0,000 mm 88 W/m 12,7 C 20,2 C 8,0 km/h (2 Bft) 97 %
27.08.2014 16:40 20,2 C 20,1 C 20,2 C 65 % 1015,4 hPa 0,0 l/m 1,8 km/h (1 Bft) W-SW 250 0 min 0,000 mm 97 W/m 13,4 C 20,2 C 11,3 km/h (2 Bft) 97 %
27.08.2014 16:50 20,2 C 20,2 C 20,3 C 62 % 1015,5 hPa 0,0 l/m 2,9 km/h (1 Bft) S-SW 213 0 min 0,000 mm 104 W/m 12,7 C 20,2 C 9,7 km/h (2 Bft) 97 %
27.08.2014 17:00 20,1 C 20,0 C 20,2 C 64 % 1015,6 hPa 0,0 l/m 2,3 km/h (1 Bft) S-SW 210 10 min 0,101 mm 153 W/m 13,1 C 20,1 C 14,5 km/h (3 Bft) 96 %
27.08.2014 17:10 20,1 C 20,1 C 20,1 C 62 % 1015,7 hPa 0,0 l/m 2,2 km/h (1 Bft) W-SW 246 0 min 0,000 mm 105 W/m 12,6 C 20,1 C 9,7 km/h (2 Bft) 90 %
27.08.2014 17:20 19,9 C 19,9 C 20,1 C 61 % 1015,6 hPa 0,0 l/m 1,3 km/h (1 Bft) SW 220 0 min 0,000 mm 77 W/m 12,2 C 19,9 C 6,4 km/h (2 Bft) 97 %
27.08.2014 17:30 19,7 C 19,7 C 19,9 C 60 % 1015,7 hPa 0,0 l/m 2,0 km/h (1 Bft) W 268 0 min 0,000 mm 70 W/m 11,7 C 19,7 C 9,7 km/h (2 Bft) 98 %
27.08.2014 17:40 19,6 C 19,6 C 19,7 C 61 % 1015,6 hPa 0,0 l/m 1,5 km/h (1 Bft) W-SW 237 0 min 0,000 mm 53 W/m 11,9 C 19,6 C 8,0 km/h (2 Bft) 97 %
27.08.2014 17:50 19,4 C 19,4 C 19,6 C 61 % 1015,7 hPa 0,0 l/m 0,7 km/h (0 Bft) S-SW 201 0 min 0,000 mm 51 W/m 11,7 C 19,4 C 8,0 km/h (2 Bft) 97 %
27.08.2014 18:00 19,3 C 19,3 C 19,4 C 61 % 1015,7 hPa 0,0 l/m 0,3 km/h (0 Bft) W-SW 237 0 min 0,076 mm 46 W/m 11,6 C 19,3 C 4,8 km/h (1 Bft) 97 %
27.08.2014 18:10 19,2 C 19,2 C 19,3 C 63 % 1015,8 hPa 0,0 l/m 0,8 km/h (0 Bft) S-SW 202 0 min 0,000 mm 44 W/m 12,0 C 19,2 C 4,8 km/h (1 Bft) 98 %
27.08.2014 18:20 19,1 C 19,1 C 19,2 C 61 % 1015,8 hPa 0,0 l/m 0,0 km/h (0 Bft) S-SW 202 0 min 0,000 mm 39 W/m 11,4 C 19,1 C 1,6 km/h (1 Bft) 97 %
27.08.2014 18:30 18,9 C 18,9 C 19,1 C 62 % 1015,9 hPa 0,0 l/m 0,4 km/h (0 Bft) SW 226 0 min 0,000 mm 46 W/m 11,5 C 18,9 C 4,8 km/h (1 Bft) 97 %
27.08.2014 18:40 18,9 C 18,9 C 19,0 C 59 % 1015,8 hPa 0,0 l/m 0,1 km/h (0 Bft) SW 226 0 min 0,000 mm 39 W/m 10,7 C 18,9 C 3,2 km/h (1 Bft) 98 %
27.08.2014 18:50 18,8 C 18,8 C 18,9 C 62 % 1015,8 hPa 0,0 l/m 0,0 km/h (0 Bft) SW 226 0 min 0,000 mm 35 W/m 11,4 C 18,8 C 1,6 km/h (1 Bft) 97 %
27.08.2014 19:00 18,8 C 18,8 C 18,8 C 67 % 1015,7 hPa 0,0 l/m 0,0 km/h (0 Bft) SW 226 0 min 0,026 mm 26 W/m 12,5 C 18,8 C 1,6 km/h (1 Bft) 97 %
27.08.2014 19:10 18,6 C 18,6 C 18,8 C 69 % 1015,7 hPa 0,0 l/m 0,0 km/h (0 Bft) SW 226 0 min 0,000 mm 30 W/m 12,8 C 18,6 C 0,0 km/h (0 Bft) 98 %
27.08.2014 19:20 18,2 C 18,2 C 18,6 C 72 % 1015,9 hPa 0,0 l/m 0,0 km/h (0 Bft) SW 226 0 min 0,000 mm 19 W/m 13,1 C 18,2 C 0,0 km/h (0 Bft) 97 %
27.08.2014 19:30 17,8 C 17,8 C 18,2 C 73 % 1015,8 hPa 0,0 l/m 0,0 km/h (0 Bft) SW 226 0 min 0,000 mm 18 W/m 12,9 C 17,8 C 0,0 km/h (0 Bft) 98 %
27.08.2014 19:40 17,3 C 17,3 C 17,8 C 73 % 1015,9 hPa 0,0 l/m 0,0 km/h (0 Bft) SW 226 0 min 0,000 mm 18 W/m 12,4 C 17,3 C 0,0 km/h (0 Bft) 97 %
27.08.2014 19:50 17,0 C 17,0 C 17,3 C 76 % 1016,1 hPa 0,0 l/m 0,0 km/h (0 Bft) SW 226 0 min 0,000 mm 14 W/m 12,7 C 17,0 C 0,0 km/h (0 Bft) 98 %
27.08.2014 20:00 16,6 C 16,6 C 17,0 C 76 % 1016,1 hPa 0,0 l/m 0,0 km/h (0 Bft) SW 226 0 min 0,025 mm 11 W/m 12,3 C 16,6 C 0,0 km/h (0 Bft) 97 %
27.08.2014 20:10 16,1 C 16,1 C 16,6 C 75 % 1016,1 hPa 0,0 l/m 0,0 km/h (0 Bft) SW 226 0 min 0,000 mm 0 W/m 11,7 C 16,1 C 0,0 km/h (0 Bft) 97 %
27.08.2014 20:20 15,8 C 15,8 C 16,1 C 77 % 1016,1 hPa 0,0 l/m 0,0 km/h (0 Bft) SW 226 0 min 0,000 mm 0 W/m 11,8 C 15,8 C 0,0 km/h (0 Bft) 97 %
27.08.2014 20:30 15,4 C 15,4 C 15,8 C 78 % 1016,1 hPa 0,0 l/m 0,0 km/h (0 Bft) SW 226 0 min 0,000 mm 0 W/m 11,6 C 15,4 C 1,6 km/h (1 Bft) 97 %
27.08.2014 20:40 15,1 C 15,1 C 15,4 C 79 % 1016,2 hPa 0,0 l/m 0,0 km/h (0 Bft) SW 226 0 min 0,000 mm 0 W/m 11,5 C 15,1 C 0,0 km/h (0 Bft) 97 %
27.08.2014 20:50 14,7 C 14,7 C 15,1 C 79 % 1016,3 hPa 0,0 l/m 0,0 km/h (0 Bft) SW 226 0 min 0,000 mm 0 W/m 11,1 C 14,7 C 0,0 km/h (0 Bft) 97 %
27.08.2014 21:00 14,4 C 14,4 C 14,7 C 80 % 1016,4 hPa 0,0 l/m 0,0 km/h (0 Bft) SW 226 0 min 0,000 mm 0 W/m 11,0 C 14,4 C 0,0 km/h (0 Bft) 97 %
27.08.2014 21:10 14,1 C 14,1 C 14,4 C 81 % 1016,4 hPa 0,0 l/m 0,0 km/h (0 Bft) N 0 0 min 0,000 mm 0 W/m 10,9 C 14,1 C 0,0 km/h (0 Bft) 100 %
27.08.2014 21:20 13,8 C 13,8 C 14,1 C 82 % 1016,5 hPa 0,0 l/m 0,0 km/h (0 Bft) N 0 0 min 0,000 mm 0 W/m 10,8 C 13,8 C 0,0 km/h (0 Bft) 100 %
27.08.2014 21:30 13,6 C 13,6 C 13,8 C 82 % 1016,6 hPa 0,0 l/m 0,0 km/h (0 Bft) N 0 0 min 0,000 mm 0 W/m 10,6 C 13,6 C 0,0 km/h (0 Bft) 100 %
27.08.2014 21:40 13,4 C 13,4 C 13,6 C 83 % 1016,6 hPa 0,0 l/m 0,0 km/h (0 Bft) N 0 0 min 0,000 mm 0 W/m 10,6 C 13,4 C 0,0 km/h (0 Bft) 100 %
27.08.2014 21:50 13,2 C 13,2 C 13,4 C 84 % 1016,6 hPa 0,0 l/m 0,0 km/h (0 Bft) N 0 0 min 0,000 mm 0 W/m 10,6 C 13,2 C 0,0 km/h (0 Bft) 100 %
27.08.2014 22:00 13,1 C 13,1 C 13,2 C 85 % 1016,6 hPa 0,0 l/m 0,0 km/h (0 Bft) N 0 0 min 0,025 mm 0 W/m 10,6 C 13,1 C 0,0 km/h (0 Bft) 100 %
27.08.2014 22:10 12,9 C 12,9 C 13,1 C 85 % 1016,6 hPa 0,0 l/m 0,0 km/h (0 Bft) N 0 0 min 0,000 mm 0 W/m 10,4 C 12,9 C 0,0 km/h (0 Bft) 100 %
27.08.2014 22:20 12,7 C 12,7 C 12,9 C 86 % 1016,7 hPa 0,0 l/m 0,0 km/h (0 Bft) N 0 0 min 0,000 mm 0 W/m 10,4 C 12,7 C 0,0 km/h (0 Bft) 100 %
27.08.2014 22:30 12,4 C 12,4 C 12,7 C 86 % 1016,8 hPa 0,0 l/m 0,0 km/h (0 Bft) N 0 0 min 0,000 mm 0 W/m 10,1 C 12,4 C 0,0 km/h (0 Bft) 100 %
27.08.2014 22:40 12,3 C 12,3 C 12,4 C 87 % 1016,7 hPa 0,0 l/m 0,0 km/h (0 Bft) SW 225 0 min 0,000 mm 0 W/m 10,2 C 12,3 C 1,6 km/h (1 Bft) 100 %
27.08.2014 22:50 12,2 C 12,2 C 12,3 C 87 % 1016,8 hPa 0,0 l/m 0,0 km/h (0 Bft) SW 225 0 min 0,000 mm 0 W/m 10,1 C 12,2 C 1,6 km/h (1 Bft) 100 %
27.08.2014 23:00 12,1 C 12,1 C 12,2 C 87 % 1016,8 hPa 0,0 l/m 0,0 km/h (0 Bft) SW 225 0 min 0,000 mm 0 W/m 10,0 C 12,1 C 1,6 km/h (1 Bft) 100 %
27.08.2014 23:10 11,9 C 11,9 C 12,1 C 87 % 1016,7 hPa 0,0 l/m 0,0 km/h (0 Bft) SW 225 0 min 0,000 mm 0 W/m 9,8 C 11,9 C 1,6 km/h (1 Bft) 99 %
27.08.2014 23:20 11,7 C 11,7 C 11,9 C 87 % 1016,8 hPa 0,0 l/m 0,0 km/h (0 Bft) N 0 0 min 0,000 mm 0 W/m 9,6 C 11,7 C 0,0 km/h (0 Bft) 100 %
27.08.2014 23:30 11,6 C 11,6 C 11,7 C 87 % 1017,0 hPa 0,0 l/m 0,0 km/h (0 Bft) SW 225 0 min 0,000 mm 0 W/m 9,5 C 11,6 C 1,6 km/h (1 Bft) 100 %
27.08.2014 23:40 11,4 C 11,4 C 11,6 C 87 % 1017,0 hPa 0,0 l/m 0,0 km/h (0 Bft) SW 225 0 min 0,000 mm 0 W/m 9,3 C 11,4 C 1,6 km/h (1 Bft) 100 %
27.08.2014 23:50 11,4 C 11,4 C 11,4 C 87 % 1017,0 hPa 0,0 l/m 0,0 km/h (0 Bft) N 0 0 min 0,000 mm 0 W/m 9,3 C 11,4 C 0,0 km/h (0 Bft) 100 %
_ Min-Zeit 23:40 23:40 23:50 18:40 00:10 - 04:30 - - - - - 23:40 04:50 06:40 06:30
Minimum _ 11,4 C 11,4 C 11,4 C 59 % 1007,1 hPa - 0,0 km/h (0 Bft) - - - - - 9,3 C 11,2 C 0,0 km/h (0 Bft) 84 %
_ Max-Zeit 15:50 16:50 15:50 04:50 23:30 05:20 04:50 - - 09:00 13:00 13:00 12:10 15:50 04:50 07:20
Maximum _ 20,3 C 20,2 C 20,3 C 88 % 1017,0 hPa 6,0 l/m 12,9 km/h
NW (3 Bft)
- - 10 min 0,432 mm 967 W/m 14,1 C 20,2 C 29,0 km/h
S-SW (5 Bft)
100 %
Durchschnitt _ 15,4 C 15,3 C 15,5 C 80 % 1013,1 hPa #14,0 l/m 1,6 km/h (1 Bft) W-SW - #6:50 h #2,260 mm 268 W/m 11,8 C 15,4 C 6,8 km/h (2 Bft) 98 %
PRIVATE WETTERSTATION BILLIGHEIM-ALLFELD - www.neckar-odenwald-wetter.de - Holger Sonntag